aviador You're here:

KGEG Decoded Metar

SPOKANE in WA, USA
Report Time2018-06-23 05:53:00
UTC Time2018-06-23 06:17:30
Flight Rules vfr VFR
WindCalm
Visibility9999 m
Phenomena:N/A
Clouds:Broken 160 Hf
Expected CloudBase > 2,400 ft AGL from Temp-Dew spread
Ceiling16,000 ft
Temp17°C (ISA +7)
Dew Point11°C (68% RH)
QNH1013 hPa
Density Alt3,389 ft
Elevation2,411 ft
Report Wrong Elevation
Raw Report
KGEG 230553Z 00000KT 10SM BKN160 17/11 A2992 RMK AO2 SLP121
T01670106 10261 20156 55000=

Extra information for KGEG:More info

Metar Taf Metar & Taf Last 4 Metars F.Rules Stats Wind Profile Meteogram Temp Stats Airport Information Weather charts Add Link Nearby VenuesMetar ALERT Operation Metar Decoded Social comments

AIRNAV info for KGEG